Time;durP1;ratioP1;P1;durP2;ratioP2;P2;SDS_P1;SDS_P2;PMS_P1;PMS_P2;Temp;Humidity;BMP_temperature;BMP_pressure;BME280_temperature;BME280_humidity;BME280_pressure;Samples;Min_cycle;Max_cycle;Signal;HPM_P1;HPM_P2
2021/08/18 00:02:26;;;;;;;8.03;4.97;;;16.30;86.00;;;;;;4950390;28;20486;-44
2021/08/18 00:04:53;;;;;;;9.03;5.93;;;16.30;86.10;;;;;;4980515;28;20459;-44
2021/08/18 00:07:21;;;;;;;7.07;4.83;;;16.30;86.00;;;;;;4949889;28;20455;-44
2021/08/18 00:09:49;;;;;;;7.10;4.80;;;16.30;85.80;;;;;;4953299;28;20466;-44
2021/08/18 00:12:18;;;;;;;6.00;4.60;;;16.30;85.50;;;;;;4953034;28;20451;-44
2021/08/18 00:14:45;;;;;;;5.20;3.67;;;16.30;85.60;;;;;;4944692;28;20889;-44
2021/08/18 00:17:12;;;;;;;7.83;4.63;;;16.30;85.70;;;;;;4945229;28;20483;-44
2021/08/18 00:19:39;;;;;;;6.60;3.83;;;16.30;85.60;;;;;;4947841;28;21345;-44
2021/08/18 00:22:06;;;;;;;8.63;4.80;;;16.30;85.50;;;;;;4945892;28;21027;-44
2021/08/18 00:24:33;;;;;;;8.60;4.13;;;16.30;85.40;;;;;;4945175;28;20569;-44
2021/08/18 00:26:59;;;;;;;5.47;4.10;;;16.30;85.10;;;;;;4951956;28;20516;-44
2021/08/18 00:29:40;;;;;;;6.80;3.20;;;16.30;85.40;;;;;;4951509;28;20487;-44
2021/08/18 00:32:08;;;;;;;4.47;3.47;;;16.30;85.40;;;;;;4946694;28;20463;-44
2021/08/18 00:34:35;;;;;;;5.70;3.40;;;16.20;85.00;;;;;;4967066;28;20470;-44
2021/08/18 00:37:02;;;;;;;6.90;4.07;;;16.20;85.40;;;;;;4951372;28;20473;-44
2021/08/18 00:39:29;;;;;;;6.37;3.63;;;16.20;85.70;;;;;;4951290;28;20475;-44
2021/08/18 00:41:56;;;;;;;4.80;2.80;;;16.20;85.60;;;;;;5041774;28;20963;-44
2021/08/18 00:44:23;;;;;;;4.27;3.70;;;16.20;85.30;;;;;;5044550;28;20464;-45
2021/08/18 00:46:53;;;;;;;6.37;3.43;;;16.20;85.10;;;;;;4943847;28;21180;-44
2021/08/18 00:49:21;;;;;;;5.17;3.10;;;16.20;85.30;;;;;;5044128;28;20499;-44
2021/08/18 00:51:50;;;;;;;5.27;3.63;;;16.20;85.40;;;;;;4952082;28;20466;-44
2021/08/18 00:54:17;;;;;;;3.30;2.77;;;16.20;85.30;;;;;;4962174;28;20463;-44
2021/08/18 00:56:45;;;;;;;6.10;3.27;;;16.20;85.50;;;;;;4948659;28;20467;-44
2021/08/18 00:59:13;;;;;;;4.90;3.00;;;16.20;85.60;;;;;;4975194;28;20460;-44
2021/08/18 01:01:41;;;;;;;6.20;3.20;;;16.20;85.50;;;;;;4948177;28;20479;-44
2021/08/18 01:04:08;;;;;;;4.33;2.70;;;16.20;85.20;;;;;;4959761;28;20522;-44
2021/08/18 01:06:39;;;;;;;7.07;4.20;;;16.20;85.50;;;;;;4954707;28;20721;-44
2021/08/18 01:09:08;;;;;;;4.77;2.60;;;16.20;85.70;;;;;;4952922;28;20483;-44
2021/08/18 01:11:37;;;;;;;4.73;3.00;;;16.20;85.90;;;;;;4949709;28;20975;-44
2021/08/18 01:14:04;;;;;;;4.77;3.27;;;16.20;85.90;;;;;;4940797;28;20965;-44
2021/08/18 01:16:35;;;;;;;6.33;3.33;;;16.20;86.00;;;;;;4951596;28;20504;-44
2021/08/18 01:19:03;;;;;;;5.37;2.97;;;16.20;86.00;;;;;;4949810;28;20463;-44
2021/08/18 01:21:34;;;;;;;3.77;3.23;;;16.20;85.40;;;;;;5044406;28;20795;-44
2021/08/18 01:24:02;;;;;;;4.50;2.67;;;16.30;85.50;;;;;;4946681;28;20482;-44
2021/08/18 01:26:29;;;;;;;5.40;2.93;;;16.30;85.70;;;;;;4954654;28;20936;-44
2021/08/18 01:28:57;;;;;;;2.60;2.40;;;16.30;85.30;;;;;;4973293;28;21037;-44
2021/08/18 01:31:24;;;;;;;4.30;2.30;;;16.30;85.30;;;;;;4947102;28;20459;-44
2021/08/18 01:33:51;;;;;;;3.57;2.97;;;16.30;85.10;;;;;;4951480;28;20458;-44
2021/08/18 01:36:21;;;;;;;5.93;2.80;;;16.30;85.40;;;;;;4947848;28;20876;-44
2021/08/18 01:38:48;;;;;;;4.73;2.70;;;16.30;85.40;;;;;;4948381;28;20459;-44
2021/08/18 01:41:14;;;;;;;5.07;2.70;;;16.30;85.40;;;;;;4946565;28;20466;-44
2021/08/18 01:43:41;;;;;;;5.50;3.00;;;16.30;85.10;;;;;;4955538;28;20472;-44
2021/08/18 01:46:10;;;;;;;4.73;2.97;;;16.30;84.90;;;;;;4949756;28;20462;-44
2021/08/18 01:48:37;;;;;;;5.00;2.83;;;16.30;85.10;;;;;;4944415;28;20491;-44
2021/08/18 01:51:06;;;;;;;4.00;3.17;;;16.30;85.20;;;;;;4945783;28;20464;-44
2021/08/18 01:53:39;;;;;;;4.90;2.83;;;16.30;84.90;;;;;;4949049;28;20963;-44
2021/08/18 01:56:07;;;;;;;4.23;2.83;;;16.30;85.00;;;;;;4953026;28;20466;-45
2021/08/18 01:58:34;;;;;;;3.37;3.07;;;16.20;84.80;;;;;;4950374;28;20475;-44
2021/08/18 02:01:10;;;;;;;4.23;2.57;;;16.20;85.00;;;;;;4944797;28;20486;-44
2021/08/18 02:03:37;;;;;;;4.50;2.90;;;16.20;85.00;;;;;;4974743;28;20480;-44
2021/08/18 02:06:04;;;;;;;2.90;2.63;;;16.20;85.00;;;;;;4942544;28;21138;-44
2021/08/18 02:08:31;;;;;;;5.40;3.13;;;16.20;85.20;;;;;;5026411;28;20820;-46
2021/08/18 02:10:58;;;;;;;4.43;3.00;;;16.20;85.20;;;;;;5042112;28;20474;-47
2021/08/18 02:13:25;;;;;;;5.30;2.70;;;16.20;85.50;;;;;;5042705;28;20466;-47
2021/08/18 02:15:52;;;;;;;5.07;3.00;;;16.20;85.30;;;;;;4940807;28;20466;-47
2021/08/18 02:18:19;;;;;;;3.30;2.87;;;16.10;85.40;;;;;;4943504;28;20972;-47
2021/08/18 02:20:46;;;;;;;4.03;3.10;;;16.20;85.60;;;;;;4946304;28;20464;-47
2021/08/18 02:23:14;;;;;;;3.60;3.20;;;16.20;85.70;;;;;;4973009;28;20960;-47
2021/08/18 02:25:41;;;;;;;4.63;3.43;;;16.20;85.80;;;;;;4944733;28;20467;-47
2021/08/18 02:28:08;;;;;;;4.93;3.13;;;16.20;85.50;;;;;;4949947;28;20467;-47
2021/08/18 02:30:36;;;;;;;4.97;4.50;;;16.20;85.60;;;;;;4946830;28;20466;-47
2021/08/18 02:33:04;;;;;;;4.10;2.70;;;16.20;85.70;;;;;;5039320;28;20915;-47
2021/08/18 02:35:32;;;;;;;6.53;3.10;;;16.20;85.80;;;;;;4941406;28;20471;-47
2021/08/18 02:38:02;;;;;;;5.00;2.93;;;16.20;85.90;;;;;;4951658;28;20522;-47
2021/08/18 02:40:29;;;;;;;5.30;3.10;;;16.20;86.00;;;;;;4943656;28;20551;-47
2021/08/18 02:42:58;;;;;;;5.40;3.90;;;16.20;86.00;;;;;;4941264;28;20472;-47
2021/08/18 02:45:27;;;;;;;4.03;2.93;;;16.20;85.90;;;;;;4943033;28;20455;-47
2021/08/18 02:47:54;;;;;;;3.47;3.17;;;16.30;85.50;;;;;;4939366;28;20460;-47
2021/08/18 02:50:24;;;;;;;3.90;2.93;;;16.30;85.60;;;;;;4945498;28;20507;-47
2021/08/18 02:52:51;;;;;;;2.77;2.53;;;16.30;85.60;;;;;;4944393;28;20480;-47
2021/08/18 02:55:19;;;;;;;2.70;2.50;;;16.30;85.40;;;;;;4951437;28;20458;-47
2021/08/18 02:57:46;;;;;;;3.57;2.80;;;16.30;85.30;;;;;;4946961;28;20462;-47
2021/08/18 03:00:13;;;;;;;4.10;3.13;;;16.30;85.40;;;;;;4948345;28;20476;-47
2021/08/18 03:02:41;;;;;;;3.77;3.00;;;16.30;85.40;;;;;;4950422;28;20483;-47
2021/08/18 03:05:08;;;;;;;3.53;2.83;;;16.30;85.30;;;;;;4947055;28;20508;-47
2021/08/18 03:07:35;;;;;;;5.47;2.97;;;16.40;85.00;;;;;;4962075;28;20463;-47
2021/08/18 03:10:03;;;;;;;5.33;2.60;;;16.40;85.10;;;;;;4944213;28;20495;-47
2021/08/18 03:12:30;;;;;;;6.03;3.07;;;16.40;85.40;;;;;;5045285;28;20455;-46
2021/08/18 03:14:56;;;;;;;3.30;2.70;;;16.40;85.70;;;;;;4945875;28;20470;-47
2021/08/18 03:17:23;;;;;;;3.33;2.40;;;16.40;85.20;;;;;;4947938;28;20455;-47
2021/08/18 03:19:50;;;;;;;3.40;2.63;;;16.40;85.50;;;;;;4976420;28;20472;-47
2021/08/18 03:22:17;;;;;;;3.27;2.97;;;16.30;85.70;;;;;;5044363;28;20487;-47
2021/08/18 03:24:44;;;;;;;2.90;2.57;;;16.40;85.40;;;;;;4945641;28;20843;-47
2021/08/18 03:27:10;;;;;;;4.40;3.17;;;16.40;85.70;;;;;;4949339;28;20577;-47
2021/08/18 03:29:37;;;;;;;3.50;2.53;;;16.40;85.80;;;;;;4948246;28;20495;-47
2021/08/18 03:32:04;;;;;;;3.03;2.20;;;16.30;85.90;;;;;;4944425;28;20485;-47
2021/08/18 03:34:31;;;;;;;6.03;2.60;;;16.30;86.10;;;;;;4943581;28;20461;-47
2021/08/18 03:36:58;;;;;;;3.63;3.33;;;16.30;86.30;;;;;;4948056;28;20462;-47
2021/08/18 03:39:25;;;;;;;3.47;2.57;;;16.30;86.30;;;;;;4950420;28;21015;-47
2021/08/18 03:41:52;;;;;;;3.13;2.83;;;16.40;86.00;;;;;;4945338;28;20990;-47
2021/08/18 03:44:19;;;;;;;3.90;2.90;;;16.40;86.00;;;;;;4949885;28;20831;-47
2021/08/18 03:46:46;;;;;;;2.87;2.57;;;16.40;85.80;;;;;;4957384;28;20883;-47
2021/08/18 03:49:12;;;;;;;4.13;2.43;;;16.40;85.60;;;;;;4947155;28;20483;-47
2021/08/18 03:51:39;;;;;;;2.97;2.67;;;16.40;85.80;;;;;;4950186;28;20463;-47
2021/08/18 03:54:06;;;;;;;4.13;2.80;;;16.40;85.80;;;;;;4972765;28;20465;-47
2021/08/18 03:56:33;;;;;;;2.53;2.33;;;16.40;85.80;;;;;;4950334;28;20851;-47
2021/08/18 03:58:59;;;;;;;2.83;2.63;;;16.40;85.90;;;;;;4946327;28;20466;-47
2021/08/18 04:01:26;;;;;;;3.17;2.60;;;16.40;85.90;;;;;;4949327;28;20479;-47
2021/08/18 04:03:53;;;;;;;3.20;2.40;;;16.40;86.00;;;;;;4950137;28;20569;-47
2021/08/18 04:06:20;;;;;;;2.60;2.37;;;16.40;86.10;;;;;;4948779;28;20468;-47
2021/08/18 04:08:47;;;;;;;5.20;2.80;;;16.40;86.20;;;;;;4948597;28;21000;-47
2021/08/18 04:11:13;;;;;;;3.83;2.40;;;16.40;86.30;;;;;;4947218;28;21706;-46
2021/08/18 04:13:40;;;;;;;2.77;2.57;;;16.40;86.40;;;;;;4950848;28;20474;-48
2021/08/18 04:16:07;;;;;;;2.60;2.23;;;16.40;86.40;;;;;;4944724;28;20467;-47
2021/08/18 04:18:34;;;;;;;3.53;2.70;;;16.40;86.30;;;;;;4970425;28;20471;-47
2021/08/18 04:21:00;;;;;;;2.70;1.97;;;16.40;86.40;;;;;;4945588;28;20486;-47
2021/08/18 04:23:28;;;;;;;4.90;2.60;;;16.50;86.30;;;;;;5042294;28;20463;-47
2021/08/18 04:25:54;;;;;;;2.57;2.07;;;16.40;86.20;;;;;;4951766;28;21043;-47
2021/08/18 04:28:21;;;;;;;3.23;2.23;;;16.40;86.20;;;;;;4942508;28;20467;-47
2021/08/18 04:30:48;;;;;;;3.20;2.20;;;16.40;86.20;;;;;;4942885;28;20499;-47
2021/08/18 04:33:15;;;;;;;3.60;2.30;;;16.50;86.20;;;;;;4975723;28;20794;-47
2021/08/18 04:35:42;;;;;;;4.93;2.20;;;16.50;86.10;;;;;;4943424;28;20489;-47
2021/08/18 04:38:08;;;;;;;2.33;2.13;;;16.50;85.90;;;;;;4959558;28;20810;-47
2021/08/18 04:40:35;;;;;;;4.93;2.10;;;16.50;85.20;;;;;;4943454;28;20470;-47
2021/08/18 04:43:02;;;;;;;3.80;2.13;;;16.50;85.50;;;;;;4944268;28;20476;-47
2021/08/18 04:45:29;;;;;;;3.10;2.03;;;16.40;85.80;;;;;;4951984;28;20470;-47
2021/08/18 04:47:58;;;;;;;3.13;2.00;;;16.50;85.70;;;;;;4944329;28;20849;-47
2021/08/18 04:50:25;;;;;;;2.90;2.53;;;16.50;85.70;;;;;;4946232;28;21030;-47
2021/08/18 04:52:52;;;;;;;1.60;1.30;;;16.40;85.90;;;;;;4945462;28;20467;-46
2021/08/18 04:55:20;;;;;;;2.00;1.40;;;16.40;86.20;;;;;;4945282;28;20461;-47
2021/08/18 04:57:47;;;;;;;2.07;1.87;;;16.50;85.80;;;;;;4941696;28;20500;-47
2021/08/18 05:00:15;;;;;;;1.60;1.50;;;16.50;85.80;;;;;;4956385;28;20452;-47
2021/08/18 05:02:45;;;;;;;1.97;1.87;;;16.50;85.80;;;;;;4953344;28;20467;-47
2021/08/18 05:05:12;;;;;;;1.77;1.60;;;16.50;85.70;;;;;;4944734;28;20466;-47
2021/08/18 05:07:39;;;;;;;2.07;1.80;;;16.50;85.40;;;;;;4945750;28;20601;-47
2021/08/18 05:10:07;;;;;;;1.80;1.70;;;16.50;85.50;;;;;;4956844;28;20491;-47
2021/08/18 05:12:33;;;;;;;2.03;1.50;;;16.60;85.20;;;;;;4970753;28;20452;-47
2021/08/18 05:15:00;;;;;;;2.13;1.77;;;16.60;85.30;;;;;;4950030;28;20952;-47
2021/08/18 05:17:27;;;;;;;1.53;1.43;;;16.60;85.20;;;;;;4942492;28;20472;-47
2021/08/18 05:19:54;;;;;;;3.37;1.53;;;16.60;85.00;;;;;;4949284;28;20467;-47
2021/08/18 05:22:20;;;;;;;1.60;1.50;;;16.60;85.00;;;;;;4949918;28;20468;-47
2021/08/18 05:24:47;;;;;;;1.60;1.50;;;16.60;85.20;;;;;;4943211;28;20467;-47
2021/08/18 05:27:14;;;;;;;5.17;1.30;;;16.60;85.50;;;;;;4954505;28;20478;-47
2021/08/18 05:29:41;;;;;;;1.73;1.63;;;16.70;85.00;;;;;;4948485;28;20486;-47
2021/08/18 05:32:08;;;;;;;1.10;1.10;;;16.70;85.00;;;;;;4938953;28;20733;-47
2021/08/18 05:34:35;;;;;;;1.67;1.10;;;16.70;85.10;;;;;;4951374;28;20458;-47
2021/08/18 05:37:01;;;;;;;1.87;1.33;;;16.70;84.80;;;;;;4970604;28;20456;-47
2021/08/18 05:39:28;;;;;;;1.53;1.43;;;16.70;85.10;;;;;;4947673;28;20463;-47
2021/08/18 05:41:55;;;;;;;1.90;1.43;;;16.70;84.60;;;;;;4973454;28;20467;-47
2021/08/18 05:44:22;;;;;;;3.00;1.53;;;16.60;84.90;;;;;;4942722;28;20467;-47
2021/08/18 05:46:49;;;;;;;1.27;1.17;;;16.60;85.20;;;;;;4943918;28;20972;-47
2021/08/18 05:49:20;;;;;;;1.40;1.20;;;16.70;85.00;;;;;;4943474;28;21121;-47
2021/08/18 05:51:49;;;;;;;1.40;1.30;;;16.70;85.20;;;;;;4949152;28;20490;-47
2021/08/18 05:54:17;;;;;;;1.27;1.13;;;16.70;85.30;;;;;;4945912;28;20460;-47
2021/08/18 05:56:44;;;;;;;1.60;1.10;;;16.70;84.90;;;;;;4945553;28;20994;-47
2021/08/18 05:59:10;;;;;;;5.53;1.60;;;16.70;84.90;;;;;;4944413;28;20615;-47
2021/08/18 06:01:37;;;;;;;2.33;1.27;;;16.70;85.00;;;;;;4961811;28;20462;-47
2021/08/18 06:04:04;;;;;;;3.47;1.47;;;16.70;85.40;;;;;;4974223;28;20467;-47
2021/08/18 06:06:31;;;;;;;2.03;1.30;;;16.70;85.50;;;;;;5038187;28;20478;-47
2021/08/18 06:08:58;;;;;;;1.70;1.30;;;16.70;85.60;;;;;;5037895;28;20470;-47
2021/08/18 06:11:26;;;;;;;1.30;1.20;;;16.80;85.50;;;;;;4943671;28;20486;-47
2021/08/18 06:13:52;;;;;;;1.50;1.00;;;16.80;85.30;;;;;;4976998;28;20463;-47
2021/08/18 06:16:21;;;;;;;1.20;1.10;;;16.90;85.20;;;;;;4948032;28;20469;-47
2021/08/18 06:18:48;;;;;;;1.17;1.07;;;16.90;84.90;;;;;;4950829;28;20843;-47
2021/08/18 06:21:15;;;;;;;1.00;0.87;;;16.90;84.70;;;;;;5044621;28;20454;-47
2021/08/18 06:23:42;;;;;;;1.10;0.80;;;16.90;84.70;;;;;;4952283;28;20524;-47
2021/08/18 06:26:09;;;;;;;1.07;0.97;;;16.90;85.10;;;;;;4946732;28;20476;-47
2021/08/18 06:28:36;;;;;;;1.90;1.33;;;17.00;84.80;;;;;;4945515;28;21205;-47
2021/08/18 06:31:03;;;;;;;2.03;1.10;;;17.10;84.90;;;;;;4948100;28;20486;-46
2021/08/18 06:33:30;;;;;;;1.00;0.97;;;17.10;84.50;;;;;;4972267;28;20459;-47
2021/08/18 06:35:57;;;;;;;1.30;1.13;;;17.10;84.70;;;;;;4950678;28;20447;-47
2021/08/18 06:38:24;;;;;;;0.97;0.87;;;17.10;84.60;;;;;;4947569;28;20450;-47
2021/08/18 06:40:51;;;;;;;1.30;1.20;;;17.20;84.70;;;;;;4973977;28;20459;-47
2021/08/18 06:43:18;;;;;;;1.47;1.03;;;17.20;85.00;;;;;;4958084;28;20462;-47
2021/08/18 06:45:45;;;;;;;1.47;1.37;;;17.20;84.90;;;;;;5040880;28;20473;-47
2021/08/18 06:48:12;;;;;;;1.80;1.17;;;17.20;84.60;;;;;;4943952;28;20476;-47
2021/08/18 06:50:39;;;;;;;1.80;1.07;;;17.30;84.40;;;;;;4940252;28;20510;-47
2021/08/18 06:53:06;;;;;;;2.70;1.67;;;17.40;83.30;;;;;;4948183;28;21025;-47
2021/08/18 06:55:34;;;;;;;2.10;1.27;;;17.40;83.40;;;;;;4956684;28;20478;-47
2021/08/18 06:58:01;;;;;;;1.20;1.10;;;17.40;83.60;;;;;;4955040;28;20472;-47
2021/08/18 07:00:28;;;;;;;1.03;0.90;;;17.50;83.30;;;;;;4939076;28;20459;-46
2021/08/18 07:02:55;;;;;;;1.27;1.17;;;17.50;83.30;;;;;;4944078;28;20554;-47
2021/08/18 07:05:23;;;;;;;1.93;1.27;;;17.50;83.60;;;;;;4945324;28;20463;-47
2021/08/18 07:07:50;;;;;;;1.40;1.30;;;17.60;83.60;;;;;;4948998;28;20468;-47
2021/08/18 07:10:17;;;;;;;1.50;1.40;;;17.70;82.80;;;;;;4950486;28;20526;-47
2021/08/18 07:12:44;;;;;;;2.00;1.57;;;17.70;82.70;;;;;;4943983;28;20524;-47
2021/08/18 07:15:11;;;;;;;1.20;1.10;;;17.70;82.70;;;;;;4944532;28;20469;-47
2021/08/18 07:17:38;;;;;;;1.57;1.00;;;17.80;82.50;;;;;;4944684;28;20465;-47
2021/08/18 07:20:06;;;;;;;1.43;1.23;;;17.80;82.10;;;;;;4943919;28;20467;-47
2021/08/18 07:22:33;;;;;;;1.20;1.10;;;17.80;82.20;;;;;;4944512;28;20970;-47
2021/08/18 07:24:59;;;;;;;1.90;1.30;;;17.80;82.20;;;;;;4970336;28;20816;-47
2021/08/18 07:27:27;;;;;;;1.40;1.30;;;17.90;82.00;;;;;;4943735;28;20491;-47
2021/08/18 07:29:56;;;;;;;1.63;1.43;;;17.90;81.40;;;;;;4941820;28;20582;-47
2021/08/18 07:32:26;;;;;;;1.37;1.23;;;17.90;81.40;;;;;;4943054;28;20455;-47
2021/08/18 07:34:53;;;;;;;2.63;1.30;;;17.90;81.80;;;;;;4941997;28;20462;-47
2021/08/18 07:37:22;;;;;;;1.37;1.27;;;17.90;81.60;;;;;;4941664;28;20451;-47
2021/08/18 07:39:48;;;;;;;3.20;1.90;;;17.90;81.60;;;;;;4950014;28;20738;-47
2021/08/18 07:42:15;;;;;;;1.60;1.23;;;17.90;81.40;;;;;;4940878;28;20463;-47
2021/08/18 07:44:42;;;;;;;1.30;1.20;;;18.00;81.60;;;;;;4942471;28;20459;-47
2021/08/18 07:47:09;;;;;;;2.80;1.40;;;18.00;81.60;;;;;;4943149;28;20448;-47
2021/08/18 07:49:36;;;;;;;1.83;1.43;;;18.10;81.50;;;;;;4945850;28;20462;-47
2021/08/18 07:52:04;;;;;;;1.90;1.40;;;18.10;81.40;;;;;;4944395;28;20464;-47
2021/08/18 07:54:32;;;;;;;2.43;1.50;;;18.10;81.90;;;;;;4944367;28;20520;-47
2021/08/18 07:56:58;;;;;;;1.90;1.10;;;18.20;81.20;;;;;;4942360;28;20464;-47
2021/08/18 07:59:25;;;;;;;1.40;1.17;;;18.20;81.10;;;;;;4945981;28;20462;-47
2021/08/18 08:01:52;;;;;;;1.67;1.43;;;18.30;80.30;;;;;;4959029;28;20463;-47
2021/08/18 08:04:19;;;;;;;2.27;1.37;;;18.40;80.50;;;;;;4949336;28;21032;-47
2021/08/18 08:06:46;;;;;;;2.57;1.40;;;18.40;80.30;;;;;;4948346;28;20467;-47
2021/08/18 08:09:13;;;;;;;1.57;1.30;;;18.40;80.40;;;;;;4950863;28;20521;-47
2021/08/18 08:11:40;;;;;;;1.47;1.30;;;18.40;80.40;;;;;;4948534;28;20487;-47
2021/08/18 08:14:06;;;;;;;1.30;1.20;;;18.40;80.50;;;;;;4943693;28;21130;-47
2021/08/18 08:16:33;;;;;;;1.90;1.30;;;18.50;80.20;;;;;;4947685;28;20955;-47
2021/08/18 08:19:00;;;;;;;1.83;1.20;;;18.50;80.40;;;;;;4950174;28;20463;-47
2021/08/18 08:21:27;;;;;;;1.80;1.30;;;18.50;80.20;;;;;;4948144;28;20553;-47
2021/08/18 08:23:54;;;;;;;4.83;1.63;;;18.60;80.40;;;;;;4953533;28;20463;-47
2021/08/18 08:26:21;;;;;;;1.37;1.20;;;18.60;80.10;;;;;;4941961;28;20488;-47
2021/08/18 08:28:48;;;;;;;3.10;1.10;;;18.70;80.10;;;;;;4954503;28;20481;-47
2021/08/18 08:31:14;;;;;;;1.83;1.10;;;18.70;80.00;;;;;;4976218;28;20483;-47
2021/08/18 08:33:41;;;;;;;1.40;1.20;;;18.80;79.80;;;;;;4951416;28;20902;-47
2021/08/18 08:36:08;;;;;;;1.30;1.20;;;18.80;79.70;;;;;;4946402;28;20881;-47
2021/08/18 08:38:35;;;;;;;1.13;1.03;;;18.90;79.20;;;;;;4945287;28;20464;-47
2021/08/18 08:41:04;;;;;;;1.40;1.27;;;18.90;79.00;;;;;;4945445;28;20462;-47
2021/08/18 08:43:30;;;;;;;1.90;1.20;;;18.90;78.70;;;;;;4941331;28;20801;-47
2021/08/18 08:45:57;;;;;;;1.20;1.00;;;19.00;79.10;;;;;;4953616;28;20444;-47
2021/08/18 08:48:24;;;;;;;1.70;1.40;;;19.00;78.60;;;;;;4972306;28;20460;-47
2021/08/18 08:50:51;;;;;;;1.50;1.20;;;19.00;79.00;;;;;;4947203;28;20483;-47
2021/08/18 08:53:18;;;;;;;2.40;1.53;;;19.00;79.20;;;;;;4949378;28;20455;-47
2021/08/18 08:55:46;;;;;;;1.90;1.63;;;19.10;78.90;;;;;;4957945;28;20471;-47
2021/08/18 08:58:13;;;;;;;1.50;1.30;;;19.20;78.10;;;;;;4946466;28;20463;-47
2021/08/18 09:00:40;;;;;;;2.00;1.30;;;19.30;78.00;;;;;;4942294;28;20844;-47
2021/08/18 09:03:16;;;;;;;1.70;1.37;;;19.30;77.50;;;;;;4948666;28;20476;-47
2021/08/18 09:05:45;;;;;;;2.67;1.47;;;19.40;77.10;;;;;;5023689;28;21000;-47
2021/08/18 09:08:15;;;;;;;2.03;1.63;;;19.50;77.10;;;;;;4945007;28;20534;-47
2021/08/18 09:11:11;;;;;;;3.60;1.27;;;19.60;77.00;;;;;;4940302;28;20494;-47
2021/08/18 09:13:40;;;;;;;1.87;1.40;;;19.80;76.30;;;;;;4955800;28;20453;-47
2021/08/18 09:16:07;;;;;;;1.40;1.30;;;19.80;76.40;;;;;;4968063;28;20814;-47
2021/08/18 09:18:52;;;;;;;1.77;1.30;;;19.80;76.10;;;;;;4955036;28;20449;-47
2021/08/18 09:21:41;;;;;;;1.40;0.80;;;19.90;75.30;;;;;;4949209;28;20472;-47
2021/08/18 09:24:12;;;;;;;1.47;1.37;;;19.90;75.20;;;;;;4951302;28;20505;-47
2021/08/18 09:26:53;;;;;;;2.57;1.43;;;19.90;75.70;;;;;;4949422;28;20955;-47
2021/08/18 09:29:29;;;;;;;1.10;1.00;;;20.00;75.80;;;;;;5041083;28;20452;-47
2021/08/18 09:32:16;;;;;;;1.20;1.10;;;20.00;75.80;;;;;;5037965;28;20843;-47
2021/08/18 09:35:04;;;;;;;1.47;1.37;;;20.10;75.70;;;;;;4944669;28;20513;-47
2021/08/18 09:37:32;;;;;;;3.40;1.30;;;20.10;74.90;;;;;;5041227;28;20470;-47
2021/08/18 09:40:01;;;;;;;2.30;1.20;;;20.20;75.00;;;;;;4945546;28;20451;-47
2021/08/18 09:42:33;;;;;;;1.93;1.57;;;20.20;75.50;;;;;;4941646;28;20996;-47
2021/08/18 09:45:34;;;;;;;1.50;1.37;;;20.30;74.50;;;;;;5027094;28;20458;-47
2021/08/18 09:48:19;;;;;;;1.20;1.07;;;20.40;74.20;;;;;;4945546;28;20472;-47
2021/08/18 09:50:53;;;;;;;1.87;1.67;;;20.50;73.80;;;;;;4939559;28;20854;-47
2021/08/18 09:53:41;;;;;;;1.50;1.40;;;20.60;73.60;;;;;;4951622;28;20455;-47
2021/08/18 09:56:13;;;;;;;1.30;1.20;;;20.60;73.80;;;;;;4970312;28;20464;-47
2021/08/18 09:58:48;;;;;;;1.50;1.40;;;20.60;73.60;;;;;;4942038;28;20542;-47
2021/08/18 10:01:17;;;;;;;1.60;1.50;;;20.70;73.70;;;;;;4956111;28;20459;-47
2021/08/18 10:03:49;;;;;;;1.60;1.40;;;20.70;72.90;;;;;;4942295;28;20839;-47
2021/08/18 10:06:17;;;;;;;1.70;1.43;;;20.70;73.10;;;;;;4935631;28;20514;-47
2021/08/18 10:08:46;;;;;;;1.73;1.63;;;20.70;72.80;;;;;;4949366;28;20481;-47
2021/08/18 10:11:15;;;;;;;2.00;1.70;;;20.60;73.50;;;;;;4953715;28;20541;-47
2021/08/18 10:13:43;;;;;;;1.77;1.53;;;20.50;74.10;;;;;;4940651;28;20465;-47
2021/08/18 10:16:10;;;;;;;1.57;1.47;;;20.50;73.50;;;;;;4939584;28;20500;-47
2021/08/18 10:18:43;;;;;;;2.50;1.53;;;20.50;73.90;;;;;;4951371;28;20460;-47
2021/08/18 10:21:18;;;;;;;1.70;1.60;;;20.50;73.50;;;;;;4943581;28;20471;-47
2021/08/18 10:24:00;;;;;;;1.70;1.37;;;20.50;73.40;;;;;;4949228;28;20497;-47
2021/08/18 10:26:46;;;;;;;1.30;1.20;;;20.50;73.50;;;;;;4946789;28;20855;-47
2021/08/18 10:29:30;;;;;;;3.27;2.07;;;20.60;73.70;;;;;;4949688;28;20505;-47
2021/08/18 10:31:58;;;;;;;1.67;1.50;;;20.70;72.70;;;;;;4940019;28;20482;-47
2021/08/18 10:34:39;;;;;;;1.77;1.60;;;20.80;72.80;;;;;;4947867;28;20459;-47
2021/08/18 10:37:23;;;;;;;2.80;2.07;;;20.90;72.40;;;;;;4942795;28;20976;-47
2021/08/18 10:39:52;;;;;;;1.80;1.70;;;21.00;72.30;;;;;;4949200;28;20462;-47
2021/08/18 10:42:31;;;;;;;2.50;1.80;;;21.00;71.50;;;;;;4947263;28;20467;-47
2021/08/18 10:44:58;;;;;;;1.70;1.60;;;21.00;72.00;;;;;;4948763;28;20835;-48
2021/08/18 10:47:37;;;;;;;2.60;1.47;;;21.00;72.00;;;;;;4941190;28;20454;-47
2021/08/18 10:50:23;;;;;;;2.50;2.00;;;21.10;71.10;;;;;;4950486;28;20473;-47
2021/08/18 10:52:51;;;;;;;1.83;1.53;;;21.20;70.50;;;;;;5042851;28;20459;-47
2021/08/18 10:55:25;;;;;;;3.07;1.97;;;21.30;70.80;;;;;;4950182;28;20452;-47
2021/08/18 10:58:03;;;;;;;3.90;1.80;;;21.70;70.20;;;;;;4940643;28;20828;-47
2021/08/18 11:00:40;;;;;;;2.30;2.10;;;22.10;69.00;;;;;;4950356;28;20944;-47
2021/08/18 11:03:22;;;;;;;2.50;1.80;;;22.30;67.20;;;;;;4944214;28;20521;-47
2021/08/18 11:05:50;;;;;;;1.23;1.07;;;22.20;67.00;;;;;;4948604;28;20651;-47
2021/08/18 11:08:36;;;;;;;2.97;1.70;;;22.10;67.40;;;;;;5040029;28;20475;-47
2021/08/18 11:11:03;;;;;;;1.50;1.40;;;22.00;67.90;;;;;;4941141;28;20532;-47
2021/08/18 11:13:44;;;;;;;2.37;2.00;;;21.80;68.10;;;;;;4942574;28;20443;-47
2021/08/18 11:16:15;;;;;;;2.20;1.50;;;21.70;68.20;;;;;;4940649;28;20475;-47
2021/08/18 11:19:00;;;;;;;3.67;1.70;;;21.50;68.30;;;;;;4979507;28;20497;-47
2021/08/18 11:21:32;;;;;;;2.63;1.83;;;21.40;69.00;;;;;;4942291;28;20463;-47
2021/08/18 11:24:00;;;;;;;1.87;1.63;;;21.30;68.50;;;;;;4949939;28;20448;-47
2021/08/18 11:26:30;;;;;;;1.33;1.23;;;21.30;68.90;;;;;;4943193;28;20497;-47
2021/08/18 11:29:02;;;;;;;2.27;1.60;;;21.20;69.70;;;;;;4949841;28;20781;-47
2021/08/18 11:31:35;;;;;;;1.90;1.50;;;21.30;68.90;;;;;;4941464;28;21007;-47
2021/08/18 11:34:03;;;;;;;1.33;1.23;;;21.40;69.00;;;;;;4945589;28;20471;-47
2021/08/18 11:36:36;;;;;;;3.00;2.10;;;21.40;69.50;;;;;;4949310;28;20465;-47
2021/08/18 11:39:06;;;;;;;1.50;1.40;;;21.60;68.40;;;;;;4951494;28;20467;-47
2021/08/18 11:41:44;;;;;;;1.50;1.40;;;21.60;68.70;;;;;;5044413;28;20474;-47
2021/08/18 11:44:25;;;;;;;1.60;1.50;;;21.70;69.20;;;;;;4940569;28;20466;-47
2021/08/18 11:46:54;;;;;;;1.70;1.30;;;21.60;68.60;;;;;;4946397;28;20484;-47
2021/08/18 11:49:26;;;;;;;2.47;1.60;;;21.60;68.30;;;;;;4949585;28;20478;-47
2021/08/18 11:51:53;;;;;;;1.40;1.30;;;21.60;67.40;;;;;;4971329;28;20499;-47
2021/08/18 11:54:24;;;;;;;1.83;1.73;;;21.50;67.70;;;;;;4944901;28;20462;-47
2021/08/18 11:57:12;;;;;;;2.20;2.00;;;21.40;68.00;;;;;;4959666;28;20469;-47
2021/08/18 11:59:38;;;;;;;2.17;2.00;;;21.40;68.60;;;;;;4943506;28;20832;-47
2021/08/18 12:02:10;;;;;;;1.70;1.60;;;21.40;67.30;;;;;;4945592;28;20486;-47
2021/08/18 12:04:40;;;;;;;1.70;1.60;;;21.40;67.70;;;;;;4946158;28;20462;-47
2021/08/18 12:07:13;;;;;;;1.87;1.67;;;21.40;67.40;;;;;;4946133;28;20486;-47
2021/08/18 12:10:06;;;;;;;1.80;1.53;;;21.50;68.00;;;;;;4939773;28;20919;-47
2021/08/18 12:12:33;;;;;;;2.10;1.90;;;21.50;67.20;;;;;;5042064;28;20499;-47
2021/08/18 12:15:09;;;;;;;2.10;1.90;;;21.50;67.60;;;;;;4971114;28;20561;-47
2021/08/18 12:17:41;;;;;;;1.77;1.67;;;21.50;66.80;;;;;;4946070;28;20454;-47
2021/08/18 12:20:29;;;;;;;2.37;1.67;;;21.50;65.60;;;;;;4973155;28;20463;-47
2021/08/18 12:23:01;;;;;;;3.00;1.97;;;21.30;66.00;;;;;;4947003;28;20467;-47
2021/08/18 12:25:33;;;;;;;1.93;1.30;;;21.30;66.10;;;;;;4956244;28;20459;-46
2021/08/18 12:28:18;;;;;;;1.60;1.50;;;21.30;65.40;;;;;;4944685;28;20478;-47
2021/08/18 12:31:02;;;;;;;1.30;1.20;;;21.30;65.80;;;;;;4943643;28;20657;-47
2021/08/18 12:33:29;;;;;;;1.90;1.73;;;21.40;66.50;;;;;;4945469;28;21034;-47
2021/08/18 12:36:12;;;;;;;1.77;1.37;;;21.50;65.90;;;;;;4944838;28;20460;-47
2021/08/18 12:38:54;;;;;;;6.50;1.67;;;21.70;65.00;;;;;;4973398;28;20952;-47
2021/08/18 12:41:25;;;;;;;2.60;1.67;;;21.90;64.80;;;;;;4946938;28;20454;-47
2021/08/18 12:44:12;;;;;;;1.67;1.57;;;22.10;63.70;;;;;;4944528;28;20471;-47
2021/08/18 12:46:41;;;;;;;1.73;1.40;;;22.30;64.10;;;;;;4944945;28;20455;-47
2021/08/18 12:49:29;;;;;;;2.13;1.50;;;22.40;63.70;;;;;;4944853;28;20554;-47
2021/08/18 12:51:58;;;;;;;1.57;1.47;;;22.60;63.70;;;;;;4947946;28;20602;-47
2021/08/18 12:54:25;;;;;;;1.40;1.30;;;22.70;63.40;;;;;;4950230;28;20464;-47
2021/08/18 12:56:53;;;;;;;1.80;1.43;;;22.80;63.30;;;;;;4948250;28;20463;-47
2021/08/18 12:59:20;;;;;;;2.10;1.50;;;22.80;63.00;;;;;;4943182;28;20471;-47
2021/08/18 13:01:47;;;;;;;1.20;1.10;;;22.90;62.80;;;;;;4948037;28;20478;-47